createdAt,value
2023-05-11T03:39:53.610Z,13.70
2023-05-11T03:44:59.932Z,13.80
2023-05-11T03:50:05.322Z,14.00
2023-05-11T03:55:11.737Z,14.00
2023-05-11T04:00:18.295Z,14.10
2023-05-11T04:05:22.228Z,14.10
2023-05-11T04:10:27.809Z,14.10
2023-05-11T04:15:31.412Z,14.10
2023-05-11T04:20:34.703Z,14.10
2023-05-11T04:25:39.363Z,14.20
2023-05-11T04:30:42.660Z,14.20
2023-05-11T04:35:46.039Z,14.20
2023-05-11T04:40:50.931Z,14.20
2023-05-11T04:45:55.831Z,14.20
2023-05-11T04:51:06.071Z,14.10
2023-05-11T04:56:14.262Z,14.20
2023-05-11T05:01:18.698Z,14.20
2023-05-11T05:06:23.101Z,14.10
2023-05-11T05:11:27.666Z,14.20
2023-05-11T05:16:32.565Z,14.20
2023-05-11T05:21:36.369Z,14.20
2023-05-11T05:26:41.260Z,14.20
2023-05-11T05:31:46.772Z,14.30
2023-05-11T05:36:50.191Z,14.40
2023-05-11T05:41:55.348Z,14.40
2023-05-11T05:47:00.218Z,14.40
2023-05-11T05:52:07.617Z,14.30
2023-05-11T05:57:14.404Z,14.30
2023-05-11T06:02:20.806Z,14.30
2023-05-11T06:07:24.391Z,14.40
2023-05-11T06:12:29.192Z,14.60
2023-05-11T06:17:33.930Z,14.60
2023-05-11T06:22:37.447Z,14.70
2023-05-11T06:27:43.107Z,14.70
2023-05-11T06:32:46.796Z,14.60
2023-05-11T06:37:52.965Z,14.70
2023-05-11T06:42:57.887Z,14.70
2023-05-11T06:48:13.889Z,14.80
2023-05-11T06:53:18.071Z,14.80
2023-05-11T06:58:23.037Z,14.90
2023-05-11T07:03:27.685Z,15.10
2023-05-11T07:08:30.961Z,15.50
2023-05-11T07:13:35.751Z,15.60
2023-05-11T07:18:39.052Z,15.70
2023-05-11T07:23:42.904Z,15.70
2023-05-11T07:28:47.489Z,15.70
2023-05-11T07:33:50.932Z,15.60
2023-05-11T07:38:54.215Z,15.70
2023-05-11T07:44:01.881Z,15.70
2023-05-11T07:49:15.702Z,15.80
2023-05-11T07:54:24.178Z,16.00
2023-05-11T07:59:29.067Z,16.30
2023-05-11T08:04:32.986Z,16.20
2023-05-11T08:09:36.562Z,16.20
2023-05-11T08:14:43.139Z,16.30
2023-05-11T08:19:46.678Z,16.50
2023-05-11T08:24:50.808Z,16.60
2023-05-11T08:29:56.794Z,17.10
2023-05-11T08:35:00.236Z,17.80
2023-05-11T08:40:04.514Z,17.70
2023-05-11T08:45:12.664Z,17.50
2023-05-11T08:50:17.279Z,17.30
2023-05-11T08:55:22.217Z,17.10
2023-05-11T09:00:28.584Z,16.90
2023-05-11T09:05:32.689Z,16.60
2023-05-11T09:10:38.198Z,16.30
2023-05-11T09:15:42.890Z,16.60
2023-05-11T09:20:46.536Z,16.80
2023-05-11T09:25:50.600Z,16.80
2023-05-11T09:30:55.531Z,16.70
2023-05-11T09:35:59.778Z,16.60
2023-05-11T09:41:04.905Z,16.60
2023-05-11T09:46:22.006Z,16.90
2023-05-11T09:51:31.977Z,16.90
2023-05-11T09:56:47.681Z,17.10
2023-05-11T10:01:52.901Z,17.20
2023-05-11T10:06:56.330Z,17.30
2023-05-11T10:12:00.170Z,17.00
2023-05-11T10:17:05.337Z,17.20
2023-05-11T10:22:09.156Z,16.50
2023-05-11T10:27:13.838Z,16.70
2023-05-11T10:32:19.576Z,16.90
2023-05-11T10:37:24.422Z,16.80
2023-05-11T10:42:46.957Z,16.80
2023-05-11T10:48:31.291Z,16.80
2023-05-11T10:53:45.698Z,16.90
2023-05-11T10:59:13.960Z,16.50
2023-05-11T11:04:20.615Z,16.20
2023-05-11T11:09:23.976Z,16.20
2023-05-11T11:14:57.578Z,16.20
2023-05-11T11:20:04.536Z,16.10
2023-05-11T11:25:09.101Z,16.10
2023-05-11T11:30:19.950Z,15.80
2023-05-11T11:35:49.879Z,15.90
2023-05-11T11:40:53.380Z,15.90
2023-05-11T11:45:57.655Z,15.70
2023-05-11T11:51:07.192Z,15.60
2023-05-11T11:56:43.842Z,15.80
2023-05-11T12:01:52.482Z,16.20
2023-05-11T12:06:59.346Z,16.20
2023-05-11T12:12:04.063Z,16.40
2023-05-11T12:17:16.033Z,16.40
2023-05-11T12:22:25.804Z,16.20
2023-05-11T12:27:29.118Z,16.40
2023-05-11T12:32:33.161Z,16.60
2023-05-11T12:37:42.625Z,16.40
2023-05-11T12:42:52.027Z,16.50
2023-05-11T12:47:57.067Z,16.60
2023-05-11T12:53:15.967Z,16.90
2023-05-11T12:58:19.413Z,16.70
2023-05-11T13:03:24.050Z,16.30
2023-05-11T13:08:29.310Z,16.20
2023-05-11T13:13:32.682Z,16.50
2023-05-11T13:18:36.143Z,16.50
2023-05-11T13:23:41.251Z,16.80
2023-05-11T13:28:48.492Z,16.60
2023-05-11T13:33:55.802Z,16.70
2023-05-11T13:39:00.796Z,16.80
2023-05-11T13:44:04.485Z,16.50
2023-05-11T13:49:08.642Z,16.30
2023-05-11T13:54:13.331Z,16.60
2023-05-11T13:59:16.832Z,16.80
2023-05-11T14:04:20.591Z,16.60
2023-05-11T14:09:25.547Z,16.60
2023-05-11T14:14:28.827Z,16.60
2023-05-11T14:19:32.535Z,16.60
2023-05-11T14:24:37.667Z,16.40
2023-05-11T14:29:43.267Z,16.40
2023-05-11T14:34:47.881Z,16.30
2023-05-11T14:39:52.655Z,16.40
2023-05-11T14:44:56.117Z,16.50
2023-05-11T14:49:59.838Z,16.60
2023-05-11T14:55:05.400Z,16.40
2023-05-11T15:00:09.853Z,16.50
2023-05-11T15:05:13.684Z,16.30
2023-05-11T15:10:18.336Z,16.30
2023-05-11T15:15:21.702Z,16.50
2023-05-11T15:20:25.285Z,16.40
2023-05-11T15:25:29.917Z,16.40
2023-05-11T15:30:33.886Z,16.20
2023-05-11T15:35:37.854Z,16.20
2023-05-11T15:40:43.319Z,16.40
2023-05-11T15:45:46.711Z,16.50
2023-05-11T15:50:50.474Z,16.40
2023-05-11T15:55:55.809Z,16.60
2023-05-11T16:00:59.366Z,16.50
2023-05-11T16:06:02.897Z,16.60
2023-05-11T16:11:07.621Z,16.40
2023-05-11T16:16:10.971Z,16.20
2023-05-11T16:21:14.710Z,16.20
2023-05-11T16:26:19.487Z,16.30
2023-05-11T16:31:23.068Z,16.30
2023-05-11T16:36:26.400Z,16.40
2023-05-11T16:41:32.534Z,16.30
2023-05-11T16:46:35.973Z,16.30
2023-05-11T16:51:39.461Z,16.40
2023-05-11T16:56:44.256Z,16.30
2023-05-11T17:01:47.567Z,16.20
2023-05-11T17:06:50.920Z,16.00
2023-05-11T17:11:56.507Z,16.20
2023-05-11T17:16:59.639Z,16.10
2023-05-11T17:22:03.590Z,15.90
2023-05-11T17:27:08.705Z,15.90
2023-05-11T17:32:12.096Z,15.80
2023-05-11T17:37:30.512Z,15.80
2023-05-11T17:42:36.260Z,15.80
2023-05-11T17:47:39.531Z,15.90
2023-05-11T17:52:42.884Z,15.80
2023-05-11T17:57:48.320Z,15.60
2023-05-11T18:02:51.573Z,15.60
2023-05-11T18:07:55.636Z,15.60
2023-05-11T18:13:00.168Z,15.60
2023-05-11T18:18:03.576Z,15.50
2023-05-11T18:23:06.879Z,15.50
2023-05-11T18:28:11.425Z,15.30
2023-05-11T18:33:14.762Z,15.20
2023-05-11T18:38:18.034Z,15.30
2023-05-11T18:43:23.969Z,15.20
2023-05-11T18:48:27.316Z,15.10
2023-05-11T18:53:30.571Z,15.20
2023-05-11T18:58:35.247Z,15.20
2023-05-11T19:03:38.614Z,15.10
2023-05-11T19:08:42.181Z,15.10
2023-05-11T19:13:47.589Z,15.10
2023-05-11T19:18:51.108Z,15.10
2023-05-11T19:23:55.329Z,14.90
2023-05-11T19:28:59.930Z,14.80
2023-05-11T19:34:04.026Z,14.90
2023-05-11T19:39:07.877Z,14.90
2023-05-11T19:44:12.459Z,14.80
2023-05-11T19:49:16.344Z,14.80
2023-05-11T19:54:19.570Z,14.80
2023-05-11T19:59:27.377Z,14.80
2023-05-11T20:04:31.777Z,14.80
2023-05-11T20:09:35.077Z,14.80
2023-05-11T20:14:40.981Z,14.80
2023-05-11T20:19:44.137Z,14.70
2023-05-11T20:24:47.412Z,14.80
2023-05-11T20:29:52.079Z,14.70
2023-05-11T20:34:55.197Z,14.60
2023-05-11T20:40:04.855Z,14.60
2023-05-11T20:45:10.829Z,14.60
2023-05-11T20:50:15.975Z,14.50
2023-05-11T20:55:19.741Z,14.60
2023-05-11T21:00:25.065Z,14.60
2023-05-11T21:05:28.415Z,14.60
2023-05-11T21:10:32.157Z,14.50
2023-05-11T21:15:36.707Z,14.50
2023-05-11T21:20:39.884Z,14.60
2023-05-11T21:25:43.009Z,14.50
2023-05-11T21:30:47.714Z,14.50
2023-05-11T21:35:51.398Z,14.40
2023-05-11T21:40:55.466Z,14.40
2023-05-11T21:46:00.263Z,14.40
2023-05-11T21:51:04.019Z,14.40
2023-05-11T21:56:09.881Z,14.40
2023-05-11T22:01:14.525Z,14.40
2023-05-11T22:06:17.748Z,14.30
2023-05-11T22:11:21.680Z,14.40
2023-05-11T22:16:26.423Z,14.40
2023-05-11T22:21:29.673Z,14.30
2023-05-11T22:26:32.824Z,14.20
2023-05-11T22:31:37.808Z,14.20
2023-05-11T22:36:41.119Z,14.20
2023-05-11T22:41:44.343Z,14.20
2023-05-11T22:46:49.674Z,14.10
2023-05-11T22:51:53.036Z,14.20
2023-05-11T22:56:56.245Z,14.20
2023-05-11T23:02:01.851Z,14.20
2023-05-11T23:07:07.836Z,14.10
2023-05-11T23:12:11.247Z,14.10
2023-05-11T23:17:15.853Z,14.00
2023-05-11T23:22:19.089Z,14.00
2023-05-11T23:27:22.284Z,14.00
2023-05-11T23:32:26.876Z,14.00
2023-05-11T23:37:30.057Z,13.90
2023-05-11T23:42:33.222Z,14.00
2023-05-11T23:47:38.005Z,13.80
2023-05-11T23:52:41.335Z,13.80
2023-05-11T23:57:45.091Z,13.70
